ADDS METAR Data INFO
IDs: Format: Raw Decoded Include TAF

Data at: 0253 UTC 21 Jan 2018

KOFP 210154Z AUTO 18003KT 10SM CLR 06/02 A3010 RMK AO2 SLP193 T00610017
KOFP 210054Z AUTO 19005KT 10SM CLR 10/02 A3009 RMK AO2 SLP189 T01000017
KOFP 202354Z AUTO 00000KT 10SM CLR 07/02 A3008 RMK AO2 SLP186 T00670017 10167 20067 53017
KOFP 202254Z AUTO 00000KT 10SM CLR 11/02 A3006 RMK AO2 SLP180 T01060017
KOFP 202154Z AUTO 22007KT 10SM CLR 14/01 A3005 RMK AO2 SLP174 T01440006
KOFP 202054Z AUTO 21006KT 10SM CLR 16/01 A3003 RMK AO2 SLP169 T01610006 55000
KOFP 201954Z AUTO 22009KT 10SM CLR 17/01 A3002 RMK AO2 SLP167 T01670006
KOFP 201854Z AUTO 26011KT 10SM CLR 16/00 A3002 RMK AO2 SLP165 T01560000
KOFP 201754Z AUTO 25010KT 10SM CLR 15/M01 A3003 RMK AO2 SLP169 T01501011 10150 20028 58016
KOFP 201654Z AUTO 24011KT 10SM CLR 13/M03 A3006 RMK AO2 SLP178 T01331028
KOFP 201554Z AUTO 25011KT 10SM CLR 11/M04 A3007 RMK AO2 SLP184 T01111044
KOFP 201454Z AUTO 24010KT 10SM CLR 09/M07 A3008 RMK AO2 SLP185 T00941072 51009
KOFP 201354Z AUTO 24006KT 10SM CLR 07/M11 A3007 RMK AO2 SLP184 T00721111
KOFP 201254Z AUTO 22005KT 10SM CLR 04/M14 A3006 RMK AO2 SLP181 T00391144
KOFP 201154Z AUTO 22004KT 10SM CLR 04/M16 A3005 RMK AO2 SLP177 T00391161 10044 21011 53003
KOFP 201054Z AUTO 22006KT 10SM CLR 03/M14 A3005 RMK AO2 SLP174 T00331144
KOFP 200954Z AUTO 21006KT 10SM CLR 03/M13 A3004 RMK AO2 SLP171 T00281133
KOFP 200854Z AUTO 21006KT 10SM CLR 03/M13 A3004 RMK AO2 SLP173 T00331133 55005
KOFP 200754Z AUTO 22006KT 10SM CLR 03/M12 A3004 RMK AO2 SLP173 T00281122
KOFP 200654Z AUTO 21004KT 10SM CLR 02/M12 A3005 RMK AO2 SLP175 T00221122
KOFP 200554Z AUTO 21004KT 10SM CLR 03/M13 A3006 RMK AO2 SLP178 T00331128 10050 20000 58009
KOFP 200454Z AUTO 21003KT 10SM CLR 04/M13 A3007 RMK AO2 SLP183 T00441128 401331044
KOFP 200354Z AUTO 22006KT 10SM CLR 05/M12 A3008 RMK AO2 SLP186 T00501122
KOFP 200254Z AUTO 21004KT 10SM CLR 04/M12 A3008 RMK AO2 SLP188 T00391122 58000
KOFP 200154Z AUTO 20004KT 10SM CLR 04/M11 A3008 RMK AO2 SLP189 T00391111
KOFP 200054Z AUTO 17003KT 10SM CLR 01/M09 A3009 RMK AO2 SLP191 T00061089
KOFP 192354Z AUTO 18004KT 10SM CLR 04/M11 A3008 RMK AO2 SLP189 T00391106 10133 20039 52004
KOFP 192254Z AUTO 22004KT 10SM CLR 09/M14 A3008 RMK AO2 SLP188 T00891139
KOFP 192154Z AUTO 22006KT 10SM CLR 11/M14 A3008 RMK AO2 SLP184 T01061144
KOFP 192054Z AUTO 23009KT 10SM CLR 12/M14 A3007 RMK AO2 SLP183 T01171139 56008
KOFP 191954Z AUTO 24007KT 10SM CLR 13/M14 A3007 RMK AO2 SLP183 T01281144
KOFP 191854Z AUTO 24006KT 10SM CLR 13/M15 A3007 RMK AO2 SLP184 T01281150
KOFP 191754Z AUTO 24007KT 10SM CLR 12/M13 A3010 RMK AO2 SLP192 T01221133 10122 21039 58025
KOFP 191654Z AUTO 25007KT 10SM CLR 10/M13 A3014 RMK AO2 SLP207 T01001133
KOFP 191554Z AUTO 26004KT 10SM CLR 08/M13 A3017 RMK AO2 SLP217 T00831128
KOFP 191454Z AUTO 28006KT 10SM CLR 05/M13 A3017 RMK AO2 SLP218 T00501128 51011